Time;durP1;ratioP1;P1;durP2;ratioP2;P2;SDS_P1;SDS_P2;PMS_P1;PMS_P2;Temp;Humidity;BMP_temperature;BMP_pressure;BME280_temperature;BME280_humidity;BME280_pressure;Samples;Min_cycle;Max_cycle;Signal;HPM_P1;HPM_P2
2023/05/23 00:02:12;;;;;;;2.43;0.87;;;13.00;99.90;;;;;;4984469;28;20266;-83
2023/05/23 00:04:38;;;;;;;1.77;1.73;;;13.00;99.90;;;;;;5001100;28;20204;-83
2023/05/23 00:07:04;;;;;;;2.63;1.70;;;13.00;99.90;;;;;;4985207;28;20250;-85
2023/05/23 00:09:30;;;;;;;5.40;2.77;;;12.90;99.90;;;;;;4984453;28;20243;-83
2023/05/23 00:11:56;;;;;;;2.13;1.83;;;12.90;99.90;;;;;;4968477;28;20878;-84
2023/05/23 00:14:22;;;;;;;1.27;1.17;;;13.00;99.90;;;;;;4984926;28;20236;-84
2023/05/23 00:16:48;;;;;;;3.87;2.17;;;12.90;99.90;;;;;;4985399;28;20184;-84
2023/05/23 00:19:15;;;;;;;4.13;2.50;;;12.90;99.90;;;;;;4985764;28;20226;-84
2023/05/23 00:21:47;;;;;;;2.47;2.27;;;12.90;99.90;;;;;;4984480;28;20228;-84
2023/05/23 00:24:13;;;;;;;2.27;2.07;;;12.90;99.90;;;;;;4983499;28;20279;-84
2023/05/23 00:26:39;;;;;;;1.90;1.73;;;12.90;99.90;;;;;;4984894;28;20220;-83
2023/05/23 00:29:04;;;;;;;1.20;1.10;;;12.80;99.90;;;;;;4967815;28;20238;-85
2023/05/23 00:31:30;;;;;;;0.73;0.73;;;12.90;99.90;;;;;;4984992;28;20549;-84
2023/05/23 00:33:56;;;;;;;1.17;0.80;;;12.80;99.90;;;;;;4983784;28;20318;-86
2023/05/23 00:36:22;;;;;;;0.60;0.60;;;12.80;99.90;;;;;;4985573;28;20250;-84
2023/05/23 00:38:48;;;;;;;2.33;1.30;;;12.90;99.90;;;;;;4968199;28;20319;-84
2023/05/23 00:41:14;;;;;;;1.00;0.97;;;12.80;99.90;;;;;;4968052;28;20274;-85
2023/05/23 00:43:40;;;;;;;1.27;1.17;;;12.80;99.90;;;;;;5001042;28;20196;-85
2023/05/23 00:46:07;;;;;;;1.27;1.13;;;12.80;99.90;;;;;;4998583;28;20216;-84
2023/05/23 00:48:33;;;;;;;1.70;1.57;;;12.90;99.90;;;;;;4967612;28;20329;-85
2023/05/23 00:50:59;;;;;;;2.17;2.00;;;12.80;99.90;;;;;;4984229;28;20631;-83
2023/05/23 00:53:25;;;;;;;1.87;1.77;;;12.80;99.90;;;;;;4967118;28;20696;-84
2023/05/23 00:55:51;;;;;;;8.53;2.37;;;12.80;99.90;;;;;;4983583;28;20192;-86
2023/05/23 00:58:17;;;;;;;2.03;1.07;;;12.90;99.90;;;;;;4984117;28;20246;-83
2023/05/23 01:00:49;;;;;;;2.60;1.73;;;12.80;99.90;;;;;;4966940;28;20719;-85
2023/05/23 01:03:17;;;;;;;1.80;1.57;;;12.80;99.90;;;;;;4968025;28;20266;-84
2023/05/23 01:05:43;;;;;;;8.30;2.17;;;12.70;99.90;;;;;;4984005;28;20224;-85
2023/05/23 01:08:09;;;;;;;1.83;1.73;;;12.70;99.90;;;;;;4988521;28;20255;-81
2023/05/23 01:10:36;;;;;;;13.13;3.10;;;12.80;99.90;;;;;;4973495;28;20188;-81
2023/05/23 01:13:07;;;;;;;1.90;1.73;;;12.80;99.90;;;;;;5005298;28;20622;-84
2023/05/23 01:15:44;;;;;;;6.10;2.37;;;12.80;99.90;;;;;;4992205;28;20281;-82
2023/05/23 01:18:37;;;;;;;12.13;3.00;;;12.90;99.90;;;;;;5009218;28;20702;-83
2023/05/23 01:21:13;;;;;;;3.53;1.80;;;12.80;99.90;;;;;;4992782;28;20216;-82
2023/05/23 01:23:58;;;;;;;4.20;2.57;;;12.90;99.90;;;;;;4992800;28;20223;-83
2023/05/23 01:26:44;;;;;;;1.10;1.03;;;12.90;99.90;;;;;;4993865;28;20227;-84
2023/05/23 01:29:27;;;;;;;1.00;1.00;;;12.90;99.90;;;;;;4993801;28;20290;-84
2023/05/23 01:31:56;;;;;;;6.93;1.90;;;12.80;99.90;;;;;;4992777;28;20172;-81
2023/05/23 01:34:21;;;;;;;2.83;1.17;;;12.90;99.90;;;;;;4994189;28;20306;-83
2023/05/23 01:36:52;;;;;;;9.60;1.43;;;12.80;99.90;;;;;;4991754;28;20649;-82
2023/05/23 01:39:18;;;;;;;1.50;1.10;;;12.90;99.90;;;;;;4993797;28;20215;-82
2023/05/23 01:41:43;;;;;;;5.80;2.77;;;12.90;99.90;;;;;;4993561;28;20222;-84
2023/05/23 01:44:09;;;;;;;8.17;2.13;;;12.90;99.90;;;;;;4976071;28;20220;-84
2023/05/23 01:46:38;;;;;;;5.53;2.03;;;12.80;99.90;;;;;;4994117;28;20187;-81
2023/05/23 01:49:05;;;;;;;1.63;0.97;;;12.80;99.90;;;;;;4992064;28;20232;-84
2023/05/23 01:51:32;;;;;;;4.40;2.07;;;12.80;99.90;;;;;;4990712;28;20368;-85
2023/05/23 01:53:59;;;;;;;2.10;0.83;;;12.80;99.90;;;;;;4990418;28;20235;-84
2023/05/23 01:56:29;;;;;;;7.43;2.07;;;12.70;99.90;;;;;;4974868;28;20211;-82
2023/05/23 01:58:55;;;;;;;3.50;1.70;;;12.70;99.90;;;;;;4975735;28;20258;-84
2023/05/23 02:01:21;;;;;;;1.83;1.73;;;12.60;99.90;;;;;;4992087;28;20231;-85
2023/05/23 02:03:47;;;;;;;1.97;1.57;;;12.60;99.90;;;;;;4990982;28;20268;-82
2023/05/23 02:06:13;;;;;;;13.97;2.00;;;12.50;99.90;;;;;;4974441;28;20222;-87
2023/05/23 02:08:39;;;;;;;0.87;0.53;;;12.50;99.90;;;;;;4974935;28;20673;-85
2023/05/23 02:11:07;;;;;;;2.70;1.70;;;12.50;99.90;;;;;;4974450;28;20640;-82
2023/05/23 02:13:33;;;;;;;3.70;1.50;;;12.50;99.90;;;;;;4991294;28;20246;-82
2023/05/23 02:15:59;;;;;;;2.00;1.90;;;12.50;99.90;;;;;;4991528;28;20362;-82
2023/05/23 02:18:25;;;;;;;4.00;1.23;;;12.40;99.90;;;;;;4959079;28;20219;-81
2023/05/23 02:20:51;;;;;;;1.53;1.47;;;12.40;99.90;;;;;;4991627;28;20212;-83
2023/05/23 02:23:16;;;;;;;7.57;2.47;;;12.50;99.90;;;;;;4959359;28;20215;-83
2023/05/23 02:25:42;;;;;;;8.60;1.73;;;12.40;99.90;;;;;;4958214;28;20180;-82
2023/05/23 02:28:08;;;;;;;1.87;1.77;;;12.50;99.90;;;;;;4975861;28;20192;-85
2023/05/23 02:30:33;;;;;;;0.80;0.70;;;12.50;99.90;;;;;;4975200;28;20331;-82
2023/05/23 02:33:04;;;;;;;17.13;1.67;;;12.60;99.90;;;;;;4975118;28;20706;-81
2023/05/23 02:35:29;;;;;;;3.00;2.70;;;12.50;99.90;;;;;;4992349;28;20462;-84
2023/05/23 02:37:55;;;;;;;0.87;0.87;;;12.60;99.90;;;;;;4975285;28;20685;-81
2023/05/23 02:40:21;;;;;;;1.27;0.80;;;12.60;99.90;;;;;;4991310;28;20176;-82
2023/05/23 02:42:47;;;;;;;0.60;0.60;;;12.50;99.90;;;;;;4991244;28;20231;-83
2023/05/23 02:45:13;;;;;;;0.63;0.63;;;12.50;99.90;;;;;;4991047;28;20220;-81
2023/05/23 02:47:38;;;;;;;2.80;0.80;;;12.40;99.90;;;;;;4958596;28;20227;-82
2023/05/23 02:50:05;;;;;;;2.10;1.87;;;12.40;99.90;;;;;;4992546;28;20590;-82
2023/05/23 02:52:34;;;;;;;2.20;1.57;;;12.40;99.90;;;;;;4975761;28;20652;-82
2023/05/23 02:54:59;;;;;;;1.27;1.17;;;12.40;99.90;;;;;;4991015;28;20621;-83
2023/05/23 02:57:25;;;;;;;1.37;1.27;;;12.40;99.90;;;;;;4958781;28;20223;-84
2023/05/23 02:59:51;;;;;;;0.80;0.80;;;12.50;99.90;;;;;;4974979;28;20219;-83
2023/05/23 03:02:16;;;;;;;1.00;0.93;;;12.40;99.90;;;;;;4974781;28;20695;-85
2023/05/23 03:04:42;;;;;;;1.27;0.47;;;12.40;99.90;;;;;;4991087;28;20199;-84
2023/05/23 03:07:10;;;;;;;1.47;1.00;;;12.40;99.90;;;;;;4975040;28;20670;-84
2023/05/23 03:09:35;;;;;;;7.67;1.30;;;12.40;99.90;;;;;;4974695;28;20226;-84
2023/05/23 03:12:01;;;;;;;0.47;0.40;;;12.40;99.90;;;;;;4989197;28;20220;-83
2023/05/23 03:14:27;;;;;;;1.13;1.03;;;12.40;99.90;;;;;;4988374;28;20639;-81
2023/05/23 03:16:52;;;;;;;2.90;0.90;;;12.40;99.90;;;;;;4973016;28;20192;-83
2023/05/23 03:19:18;;;;;;;2.57;0.93;;;12.30;99.90;;;;;;4973137;28;20184;-84
2023/05/23 03:21:44;;;;;;;1.90;1.17;;;12.30;99.90;;;;;;4988904;28;20724;-84
2023/05/23 03:24:10;;;;;;;15.83;1.37;;;12.20;99.90;;;;;;4956781;28;20294;-81
2023/05/23 03:26:36;;;;;;;0.50;0.50;;;12.30;99.90;;;;;;4990425;28;20227;-82
2023/05/23 03:29:02;;;;;;;2.73;0.83;;;12.30;99.90;;;;;;4988891;28;20235;-83
2023/05/23 03:31:27;;;;;;;0.90;0.73;;;12.20;99.90;;;;;;4973356;28;20186;-83
2023/05/23 03:33:53;;;;;;;1.77;0.70;;;12.10;99.90;;;;;;4972056;28;20602;-86
2023/05/23 03:36:20;;;;;;;0.80;0.80;;;12.10;99.90;;;;;;4972734;28;20223;-82
2023/05/23 03:38:46;;;;;;;2.63;0.40;;;12.10;99.90;;;;;;4972990;28;20215;-84
2023/05/23 03:41:12;;;;;;;3.10;1.03;;;12.00;99.90;;;;;;4989671;28;20219;-81
2023/05/23 03:43:37;;;;;;;6.57;2.03;;;12.00;99.90;;;;;;4990000;28;20187;-83
2023/05/23 03:46:06;;;;;;;0.40;0.40;;;12.00;99.90;;;;;;4989251;28;20228;-81
2023/05/23 03:48:32;;;;;;;1.00;0.90;;;12.00;99.90;;;;;;4990432;28;20673;-85
2023/05/23 03:51:00;;;;;;;7.83;1.90;;;11.90;99.90;;;;;;4989857;28;20219;-82
2023/05/23 03:53:26;;;;;;;1.50;1.40;;;11.90;99.90;;;;;;4973411;28;20298;-83
2023/05/23 03:55:52;;;;;;;1.23;1.20;;;11.90;99.90;;;;;;4973670;28;20210;-85
2023/05/23 03:58:19;;;;;;;1.47;1.37;;;11.80;99.90;;;;;;4990052;28;20693;-81
2023/05/23 04:00:45;;;;;;;1.60;1.10;;;11.80;99.90;;;;;;4987750;28;20231;-83
2023/05/23 04:03:14;;;;;;;1.10;1.10;;;11.80;99.90;;;;;;4971936;28;20586;-83
2023/05/23 04:05:40;;;;;;;0.73;0.73;;;11.80;99.90;;;;;;4972033;28;20239;-83
2023/05/23 04:08:07;;;;;;;1.13;1.03;;;11.70;99.90;;;;;;4988212;28;20220;-82
2023/05/23 04:10:32;;;;;;;7.60;1.20;;;11.60;99.90;;;;;;4956730;28;20180;-83
2023/05/23 04:12:58;;;;;;;0.33;0.33;;;11.60;99.90;;;;;;4971762;28;20230;-83
2023/05/23 04:15:24;;;;;;;0.50;0.50;;;11.60;99.90;;;;;;4955553;28;20685;-82
2023/05/23 04:17:50;;;;;;;1.23;1.13;;;11.50;99.90;;;;;;4955769;28;20216;-85
2023/05/23 04:20:16;;;;;;;0.80;0.77;;;11.50;99.90;;;;;;4971638;28;20275;-82
2023/05/23 04:22:42;;;;;;;1.53;0.80;;;11.50;99.90;;;;;;4956071;28;20176;-83
2023/05/23 04:25:08;;;;;;;3.53;1.87;;;11.50;99.90;;;;;;5004488;28;20270;-83
2023/05/23 04:27:34;;;;;;;2.00;1.90;;;11.50;99.90;;;;;;4987738;28;20220;-85
2023/05/23 04:30:00;;;;;;;1.50;1.40;;;11.40;99.90;;;;;;4971053;28;20242;-84
2023/05/23 04:32:26;;;;;;;1.17;0.67;;;11.50;99.90;;;;;;4987764;28;20215;-81
2023/05/23 04:34:52;;;;;;;4.23;1.57;;;11.50;99.90;;;;;;4987542;28;20253;-84
2023/05/23 04:37:24;;;;;;;0.77;0.73;;;11.50;99.90;;;;;;4973174;28;20234;-83
2023/05/23 04:39:51;;;;;;;0.97;0.80;;;11.50;99.90;;;;;;4989544;28;20311;-82
2023/05/23 04:42:17;;;;;;;0.30;0.30;;;11.50;99.90;;;;;;4990447;28;20220;-82
2023/05/23 04:44:43;;;;;;;1.37;1.30;;;11.50;99.90;;;;;;4972942;28;20235;-83
2023/05/23 04:47:10;;;;;;;7.73;0.93;;;11.50;99.90;;;;;;4973018;28;20232;-83
2023/05/23 04:49:36;;;;;;;1.10;1.10;;;11.50;99.90;;;;;;4958125;28;20186;-84
2023/05/23 04:52:02;;;;;;;0.80;0.80;;;11.40;99.90;;;;;;4972845;28;20282;-83
2023/05/23 04:54:28;;;;;;;0.70;0.70;;;11.40;99.90;;;;;;4989135;28;20788;-83
2023/05/23 04:56:53;;;;;;;0.20;0.20;;;11.30;99.90;;;;;;4988217;28;20243;-84
2023/05/23 04:59:19;;;;;;;0.93;0.83;;;11.30;99.90;;;;;;4988852;28;20807;-82
2023/05/23 05:01:45;;;;;;;3.97;1.13;;;11.30;99.90;;;;;;4972973;28;20239;-83
2023/05/23 05:04:11;;;;;;;0.50;0.20;;;11.40;99.90;;;;;;4973370;28;20200;-82
2023/05/23 05:06:37;;;;;;;2.23;0.70;;;11.30;99.90;;;;;;4988857;28;20236;-81
2023/05/23 05:09:02;;;;;;;2.17;1.23;;;11.30;99.90;;;;;;4956898;28;20215;-84
2023/05/23 05:11:28;;;;;;;7.17;0.97;;;11.20;99.90;;;;;;4972129;28;20216;-81
2023/05/23 05:13:54;;;;;;;0.77;0.77;;;11.20;99.90;;;;;;4972144;28;20227;-80
2023/05/23 05:16:20;;;;;;;5.57;1.43;;;11.30;99.90;;;;;;4972939;28;20184;-82
2023/05/23 05:18:46;;;;;;;3.23;2.93;;;11.30;99.90;;;;;;4988822;28;20247;-83
2023/05/23 05:21:12;;;;;;;2.53;0.60;;;11.40;99.90;;;;;;4972563;28;20301;-83
2023/05/23 05:23:37;;;;;;;0.70;0.70;;;11.40;99.90;;;;;;4988824;28;20222;-81
2023/05/23 05:26:04;;;;;;;2.27;1.00;;;11.40;99.90;;;;;;4988935;28;20227;-84
2023/05/23 05:28:30;;;;;;;2.20;0.93;;;11.50;99.90;;;;;;4957100;28;20188;-83
2023/05/23 05:30:56;;;;;;;16.90;1.50;;;11.40;99.90;;;;;;4989298;28;20238;-83
2023/05/23 05:33:27;;;;;;;3.63;1.03;;;11.40;99.90;;;;;;4989351;28;20577;-84
2023/05/23 05:35:52;;;;;;;1.30;0.80;;;11.40;99.90;;;;;;4972269;28;20230;-81
2023/05/23 05:38:18;;;;;;;0.83;0.83;;;11.40;99.90;;;;;;4955691;28;20208;-83
2023/05/23 05:40:44;;;;;;;2.67;0.93;;;11.50;99.90;;;;;;4988155;28;20457;-83
2023/05/23 05:43:10;;;;;;;4.27;1.17;;;11.60;99.90;;;;;;4956578;28;20296;-86
2023/05/23 05:45:36;;;;;;;1.27;0.67;;;12.20;99.90;;;;;;4970073;28;20687;-85
2023/05/23 05:48:02;;;;;;;0.90;0.87;;;12.40;99.90;;;;;;4970361;28;20216;-83
2023/05/23 05:50:28;;;;;;;5.00;1.70;;;12.40;99.90;;;;;;4987424;28;20212;-83
2023/05/23 05:52:53;;;;;;;12.73;0.63;;;12.30;99.90;;;;;;4972130;28;20271;-83
2023/05/23 05:55:19;;;;;;;0.97;0.70;;;12.20;99.90;;;;;;4989972;28;20218;-85
2023/05/23 05:57:45;;;;;;;3.77;0.93;;;12.20;99.90;;;;;;4972118;28;20248;-84
2023/05/23 06:00:17;;;;;;;0.67;0.67;;;12.10;99.90;;;;;;4988201;28;20311;-86
2023/05/23 06:02:47;;;;;;;3.43;1.73;;;12.00;99.90;;;;;;4992147;28;20212;-84
2023/05/23 06:05:15;;;;;;;1.13;1.03;;;12.40;99.90;;;;;;4991178;28;20215;-82
2023/05/23 06:07:48;;;;;;;1.33;1.13;;;12.30;99.90;;;;;;5008686;28;20211;-81
2023/05/23 06:10:17;;;;;;;1.23;1.13;;;12.30;99.90;;;;;;4990901;28;20295;-84
2023/05/23 06:12:44;;;;;;;4.63;1.23;;;12.70;99.90;;;;;;4959962;28;20220;-81
2023/05/23 06:15:12;;;;;;;14.77;2.57;;;12.90;99.90;;;;;;4975402;28;20223;-83
2023/05/23 06:17:37;;;;;;;0.60;0.60;;;12.50;99.90;;;;;;4991659;28;20299;-84
2023/05/23 06:20:04;;;;;;;3.03;0.93;;;12.40;99.90;;;;;;4974946;28;20316;-83
2023/05/23 06:22:30;;;;;;;7.80;0.60;;;12.40;99.90;;;;;;4975488;28;20188;-81
2023/05/23 06:24:55;;;;;;;0.87;0.57;;;12.60;99.90;;;;;;4975329;28;20584;-84
2023/05/23 06:27:21;;;;;;;2.30;0.60;;;12.60;99.90;;;;;;4959252;28;20282;-84
2023/05/23 06:29:47;;;;;;;1.97;0.50;;;12.50;99.90;;;;;;4991124;28;20677;-84
2023/05/23 06:32:12;;;;;;;1.13;0.90;;;12.30;99.90;;;;;;4991352;28;20230;-83
2023/05/23 06:34:38;;;;;;;2.83;0.80;;;12.30;99.90;;;;;;4993063;28;20615;-82
2023/05/23 06:37:04;;;;;;;14.47;1.90;;;12.20;99.90;;;;;;4958483;28;20281;-86
2023/05/23 06:39:30;;;;;;;3.50;1.27;;;12.30;99.90;;;;;;4975073;28;20228;-82
2023/05/23 06:41:56;;;;;;;1.50;0.77;;;12.20;99.90;;;;;;4975347;28;20306;-81
2023/05/23 06:44:21;;;;;;;0.77;0.77;;;12.30;99.90;;;;;;4974913;28;20699;-81
2023/05/23 06:46:47;;;;;;;0.60;0.60;;;12.30;99.90;;;;;;4974676;28;20401;-81
2023/05/23 06:49:14;;;;;;;2.67;1.57;;;12.40;99.90;;;;;;4975794;28;20184;-84
2023/05/23 06:51:39;;;;;;;3.00;0.50;;;12.40;99.90;;;;;;4975621;28;20216;-88
2023/05/23 06:54:05;;;;;;;1.17;0.90;;;12.40;99.90;;;;;;4975832;28;20231;-86
2023/05/23 06:56:31;;;;;;;0.87;0.87;;;12.30;99.90;;;;;;4991132;28;20275;-87
2023/05/23 06:58:57;;;;;;;1.83;1.73;;;12.20;99.90;;;;;;4974917;28;20180;-86
2023/05/23 07:01:23;;;;;;;1.93;1.60;;;12.30;99.90;;;;;;4991874;28;20188;-87
2023/05/23 07:03:48;;;;;;;0.97;0.83;;;12.40;99.90;;;;;;4975167;28;20246;-91
2023/05/23 07:06:15;;;;;;;0.53;0.53;;;12.60;99.90;;;;;;4959762;28;20683;-88
2023/05/23 07:08:41;;;;;;;2.27;1.00;;;12.50;99.90;;;;;;4992347;28;20216;-86
2023/05/23 07:11:06;;;;;;;0.60;0.60;;;12.60;99.90;;;;;;4975264;28;20235;-85
2023/05/23 07:13:32;;;;;;;0.87;0.53;;;12.70;99.90;;;;;;4959372;28;20192;-88
2023/05/23 07:15:58;;;;;;;4.03;1.23;;;12.50;99.90;;;;;;4975816;28;20613;-87
2023/05/23 07:18:26;;;;;;;0.80;0.40;;;12.40;99.90;;;;;;5007897;28;20543;-84
2023/05/23 07:20:52;;;;;;;1.53;1.43;;;12.30;99.90;;;;;;4991694;28;20220;-85
2023/05/23 07:23:18;;;;;;;0.30;0.30;;;12.50;99.90;;;;;;4957486;28;20274;-88
2023/05/23 07:25:46;;;;;;;0.93;0.93;;;13.00;99.90;;;;;;4974553;28;20208;-86
2023/05/23 07:28:11;;;;;;;0.43;0.30;;;13.50;99.90;;;;;;4991764;28;20176;-88
2023/05/23 07:30:37;;;;;;;5.10;1.73;;;13.50;99.90;;;;;;4957648;28;20278;-89
2023/05/23 07:33:03;;;;;;;1.53;0.83;;;13.30;99.90;;;;;;4989667;28;20294;-87
2023/05/23 07:35:29;;;;;;;1.23;0.80;;;12.90;99.90;;;;;;4957382;28;20693;-88
2023/05/23 07:37:56;;;;;;;3.80;1.43;;;13.00;99.90;;;;;;4974462;28;20200;-84
2023/05/23 07:40:22;;;;;;;0.87;0.87;;;13.00;99.90;;;;;;4974822;28;20222;-89
2023/05/23 07:42:48;;;;;;;0.33;0.33;;;13.30;99.90;;;;;;4958029;28;20227;-85
2023/05/23 07:45:14;;;;;;;0.53;0.53;;;13.30;99.90;;;;;;4974471;28;20682;-88
2023/05/23 07:47:40;;;;;;;2.00;1.20;;;13.20;99.90;;;;;;4990856;28;20231;-86
2023/05/23 07:50:07;;;;;;;4.47;1.93;;;13.10;99.90;;;;;;4990939;28;20461;-89
2023/05/23 07:52:33;;;;;;;1.03;0.60;;;13.60;99.90;;;;;;4959584;28;20226;-87
2023/05/23 07:54:59;;;;;;;0.60;0.40;;;13.90;99.90;;;;;;4958733;28;20814;-86
2023/05/23 07:57:25;;;;;;;2.97;0.67;;;14.10;99.90;;;;;;4974715;28;20249;-86
2023/05/23 07:59:51;;;;;;;0.60;0.60;;;13.80;99.90;;;;;;4990655;28;20725;-88
2023/05/23 08:02:18;;;;;;;3.70;1.07;;;13.10;99.90;;;;;;4974575;28;20299;-87
2023/05/23 08:04:44;;;;;;;0.90;0.90;;;12.80;99.90;;;;;;4991577;28;20579;-85
2023/05/23 08:07:11;;;;;;;1.00;0.80;;;12.60;99.90;;;;;;4975353;28;20188;-86
2023/05/23 08:09:39;;;;;;;2.83;0.90;;;12.90;99.90;;;;;;4991576;28;20269;-85
2023/05/23 08:12:06;;;;;;;2.63;1.37;;;12.90;99.90;;;;;;4990539;28;20219;-85
2023/05/23 08:14:32;;;;;;;3.63;2.47;;;12.80;99.90;;;;;;5006021;28;20314;-87
2023/05/23 08:16:58;;;;;;;2.47;0.77;;;13.10;99.90;;;;;;4991127;28;20186;-87
2023/05/23 08:19:24;;;;;;;0.93;0.60;;;13.30;99.90;;;;;;4959050;28;20180;-88
2023/05/23 08:21:51;;;;;;;2.10;1.33;;;13.40;99.90;;;;;;4990150;28;20277;-85
2023/05/23 08:24:20;;;;;;;5.23;1.23;;;13.60;99.90;;;;;;4990126;28;20231;-87
2023/05/23 08:26:46;;;;;;;1.23;0.97;;;13.20;99.90;;;;;;4958669;28;20224;-84
2023/05/23 08:29:13;;;;;;;3.97;1.07;;;13.20;99.90;;;;;;4989933;28;20235;-85
2023/05/23 08:31:39;;;;;;;0.73;0.73;;;13.60;99.90;;;;;;4992033;28;20179;-85
2023/05/23 08:34:06;;;;;;;3.83;1.30;;;13.40;99.90;;;;;;4989902;28;20235;-85
2023/05/23 08:36:35;;;;;;;1.90;1.77;;;13.70;99.90;;;;;;4989761;28;20219;-85
2023/05/23 08:39:01;;;;;;;0.83;0.83;;;13.90;99.90;;;;;;4989649;28;20304;-85
2023/05/23 08:41:29;;;;;;;1.00;0.70;;;13.50;99.90;;;;;;4990846;28;20228;-85
2023/05/23 08:43:56;;;;;;;2.40;1.10;;;13.40;99.90;;;;;;4973683;28;20207;-87
2023/05/23 08:46:22;;;;;;;18.03;1.97;;;13.30;99.90;;;;;;4990588;28;20307;-85
2023/05/23 08:48:55;;;;;;;7.80;1.53;;;13.40;99.90;;;;;;4990036;28;20559;-84
2023/05/23 08:51:22;;;;;;;4.73;0.80;;;13.70;99.90;;;;;;4989716;28;20244;-86
2023/05/23 08:53:49;;;;;;;1.90;1.37;;;13.60;99.90;;;;;;4989831;28;20823;-87
2023/05/23 08:56:15;;;;;;;7.87;1.57;;;14.20;99.90;;;;;;4989722;28;20224;-87
2023/05/23 08:58:42;;;;;;;1.60;0.87;;;13.60;99.90;;;;;;4991530;28;20195;-84
2023/05/23 09:01:09;;;;;;;0.80;0.47;;;13.20;99.90;;;;;;4973603;28;20565;-85
2023/05/23 09:03:36;;;;;;;2.23;2.13;;;13.80;99.90;;;;;;4972598;28;20689;-88
2023/05/23 09:06:05;;;;;;;13.93;1.73;;;13.50;99.90;;;;;;5005751;28;20220;-84
2023/05/23 09:08:31;;;;;;;0.80;0.80;;;13.40;99.90;;;;;;4989572;28;20212;-89
2023/05/23 09:10:57;;;;;;;1.57;1.47;;;13.60;99.90;;;;;;4973642;28;20524;-88
2023/05/23 09:13:24;;;;;;;12.73;2.53;;;13.60;99.90;;;;;;4974214;28;20813;-86
2023/05/23 09:16:04;;;;;;;1.40;1.03;;;13.90;99.90;;;;;;4972914;28;20322;-86
2023/05/23 09:18:37;;;;;;;3.90;0.57;;;14.00;99.90;;;;;;4974021;28;20813;-86
2023/05/23 09:21:04;;;;;;;2.67;1.17;;;14.10;99.90;;;;;;4988867;28;20216;-88
2023/05/23 09:23:35;;;;;;;2.40;0.70;;;14.50;99.90;;;;;;4990354;28;20291;-85
2023/05/23 09:26:04;;;;;;;2.67;2.00;;;15.10;99.90;;;;;;4972616;28;20267;-86
2023/05/23 09:28:32;;;;;;;12.73;1.37;;;14.70;99.90;;;;;;4957273;28;20176;-86
2023/05/23 09:31:02;;;;;;;3.30;0.80;;;14.70;99.90;;;;;;4989386;28;20239;-85
2023/05/23 09:33:38;;;;;;;3.17;1.30;;;14.40;99.90;;;;;;4989569;28;20258;-85
2023/05/23 09:36:05;;;;;;;6.43;1.27;;;13.80;99.90;;;;;;4991022;28;20239;-85
2023/05/23 09:38:31;;;;;;;2.03;1.93;;;13.50;99.90;;;;;;4992901;28;20223;-86
2023/05/23 09:40:58;;;;;;;2.30;0.90;;;13.20;99.90;;;;;;4992837;28;20191;-85
2023/05/23 09:43:24;;;;;;;5.47;1.07;;;14.10;99.90;;;;;;4994217;28;20180;-88
2023/05/23 09:45:51;;;;;;;1.03;0.63;;;14.40;99.90;;;;;;4976105;28;20235;-87
2023/05/23 09:48:17;;;;;;;0.43;0.43;;;13.70;99.90;;;;;;4976696;28;20594;-87
2023/05/23 09:50:45;;;;;;;0.90;0.90;;;14.20;99.90;;;;;;4976789;28;20220;-85
2023/05/23 09:53:11;;;;;;;0.30;0.30;;;14.30;99.90;;;;;;4976098;28;20246;-89
2023/05/23 09:55:39;;;;;;;0.40;0.40;;;13.70;99.90;;;;;;4996473;28;20239;-87
2023/05/23 09:58:06;;;;;;;2.47;0.90;;;13.90;99.90;;;;;;4976775;28;20238;-84
2023/05/23 10:00:32;;;;;;;1.27;1.03;;;14.20;99.90;;;;;;4960550;28;20216;-85
2023/05/23 10:03:03;;;;;;;2.23;1.50;;;14.30;99.90;;;;;;4994130;28;20303;-87
2023/05/23 10:05:37;;;;;;;3.90;1.43;;;13.90;99.90;;;;;;4992997;28;20226;-87
2023/05/23 10:08:09;;;;;;;1.30;0.70;;;13.60;99.90;;;;;;4992783;28;20227;-86
2023/05/23 10:10:51;;;;;;;5.70;0.67;;;13.70;99.90;;;;;;4993122;28;20172;-86
2023/05/23 10:13:17;;;;;;;1.23;0.60;;;13.60;99.90;;;;;;4991991;28;20792;-86
2023/05/23 10:15:43;;;;;;;3.10;1.40;;;13.20;99.90;;;;;;4974753;28;20232;-85
2023/05/23 10:18:20;;;;;;;2.10;1.00;;;13.40;99.90;;;;;;4960201;28;20215;-87
2023/05/23 10:20:50;;;;;;;2.50;0.97;;;13.20;99.90;;;;;;4992620;28;20214;-88
2023/05/23 10:23:20;;;;;;;17.03;2.07;;;13.50;99.90;;;;;;4992304;28;20216;-86
2023/05/23 10:25:47;;;;;;;2.37;0.57;;;14.00;99.90;;;;;;5008739;28;20532;-86
2023/05/23 10:28:13;;;;;;;3.90;1.60;;;14.00;99.90;;;;;;4993020;28;20622;-87
2023/05/23 10:30:39;;;;;;;3.93;1.20;;;14.20;99.90;;;;;;4975720;28;20574;-87
2023/05/23 10:33:07;;;;;;;0.30;0.30;;;14.80;99.90;;;;;;4960113;28;20244;-86
2023/05/23 10:35:39;;;;;;;4.37;2.20;;;14.40;99.90;;;;;;4975938;28;20311;-86
2023/05/23 10:38:31;;;;;;;6.03;1.33;;;14.20;99.90;;;;;;4991938;28;20863;-87
2023/05/23 10:41:04;;;;;;;0.30;0.30;;;14.00;99.90;;;;;;4988022;28;20184;-89
2023/05/23 10:43:39;;;;;;;0.33;0.33;;;13.60;99.90;;;;;;4992019;28;20200;-85
2023/05/23 10:46:07;;;;;;;5.07;1.17;;;13.30;99.90;;;;;;4992169;28;20314;-85
2023/05/23 10:48:43;;;;;;;4.17;0.57;;;13.30;99.90;;;;;;4991677;28;20219;-84
2023/05/23 10:51:11;;;;;;;4.00;1.30;;;13.70;99.90;;;;;;4975351;28;20215;-88
2023/05/23 10:53:52;;;;;;;1.63;0.97;;;13.80;99.90;;;;;;4991808;28;20222;-87
2023/05/23 10:56:22;;;;;;;1.27;1.17;;;14.50;99.90;;;;;;4993012;28;20228;-86
2023/05/23 10:58:54;;;;;;;3.50;0.77;;;14.40;99.90;;;;;;5007984;28;20200;-88
2023/05/23 11:01:21;;;;;;;8.80;1.67;;;14.10;99.90;;;;;;4975748;28;20385;-86
2023/05/23 11:03:46;;;;;;;4.83;1.53;;;14.10;99.90;;;;;;4991076;28;20219;-85
2023/05/23 11:06:27;;;;;;;3.07;0.93;;;14.10;99.90;;;;;;4990582;28;20231;-88
2023/05/23 11:09:03;;;;;;;3.03;1.67;;;14.40;99.90;;;;;;4990879;28;20227;-90
2023/05/23 11:11:52;;;;;;;2.43;1.50;;;14.80;99.90;;;;;;4991895;28;20219;-87
2023/05/23 11:14:18;;;;;;;3.30;0.80;;;14.80;99.90;;;;;;4991099;28;20250;-86
2023/05/23 11:16:46;;;;;;;1.47;1.37;;;15.00;99.90;;;;;;4958950;28;20185;-86
2023/05/23 11:19:17;;;;;;;3.50;0.97;;;14.60;99.90;;;;;;4992872;28;20629;-87
2023/05/23 11:22:00;;;;;;;0.80;0.80;;;14.30;99.90;;;;;;4992167;28;20298;-88
2023/05/23 11:24:52;;;;;;;3.37;1.70;;;14.40;99.90;;;;;;4991570;28;20243;-89
2023/05/23 11:27:36;;;;;;;0.67;0.67;;;14.60;99.90;;;;;;4991225;28;20216;-85
2023/05/23 11:30:08;;;;;;;0.43;0.20;;;13.90;99.90;;;;;;4990840;28;20262;-87
2023/05/23 11:32:36;;;;;;;4.07;1.73;;;14.30;99.90;;;;;;4990718;28;20224;-86
2023/05/23 11:35:04;;;;;;;2.67;1.30;;;13.80;99.90;;;;;;4974950;28;20286;-86
2023/05/23 11:37:31;;;;;;;4.23;0.80;;;14.10;99.90;;;;;;4992923;28;20185;-88
2023/05/23 11:39:57;;;;;;;7.47;0.97;;;14.20;99.90;;;;;;4974898;28;20244;-83
2023/05/23 11:42:23;;;;;;;0.50;0.50;;;14.40;99.90;;;;;;5007501;28;20230;-88
2023/05/23 11:44:52;;;;;;;6.23;1.40;;;14.40;99.90;;;;;;4989797;28;20220;-87
2023/05/23 11:47:18;;;;;;;2.57;0.80;;;14.40;99.90;;;;;;4973315;28;20216;-86
2023/05/23 11:49:46;;;;;;;0.77;0.77;;;14.60;99.90;;;;;;4972920;28;20183;-88
2023/05/23 11:52:12;;;;;;;1.17;1.07;;;14.00;99.90;;;;;;4989747;28;20182;-89
2023/05/23 11:54:42;;;;;;;1.53;1.30;;;13.50;99.90;;;;;;4973023;28;20223;-85
2023/05/23 11:57:09;;;;;;;1.43;0.80;;;13.50;99.90;;;;;;4990310;28;20228;-87
2023/05/23 11:59:36;;;;;;;10.03;1.67;;;13.80;99.90;;;;;;4988885;28;20216;-86
2023/05/23 12:02:02;;;;;;;2.03;0.77;;;14.50;99.90;;;;;;4988799;28;20283;-84
2023/05/23 12:04:28;;;;;;;1.67;0.90;;;14.70;99.90;;;;;;4990018;28;20184;-86
2023/05/23 12:06:54;;;;;;;2.03;0.83;;;14.30;99.90;;;;;;4973738;28;20247;-87
2023/05/23 12:09:20;;;;;;;1.07;1.07;;;14.00;99.90;;;;;;4973457;28;20250;-87
2023/05/23 12:11:48;;;;;;;0.50;0.50;;;14.10;99.90;;;;;;4957709;28;20697;-85
2023/05/23 12:14:16;;;;;;;3.40;1.00;;;14.70;99.90;;;;;;4989676;28;20330;-86
2023/05/23 12:16:45;;;;;;;6.53;1.20;;;14.60;99.90;;;;;;4990834;28;20267;-86
2023/05/23 12:19:12;;;;;;;1.43;0.73;;;14.70;99.90;;;;;;4974356;28;20212;-88
2023/05/23 12:21:47;;;;;;;2.43;0.77;;;14.60;99.90;;;;;;4957750;28;20745;-87
2023/05/23 12:24:22;;;;;;;0.50;0.50;;;14.40;99.90;;;;;;5004424;28;20232;-89
2023/05/23 12:27:02;;;;;;;1.50;0.77;;;14.50;99.90;;;;;;4972558;28;20242;-87
2023/05/23 12:29:32;;;;;;;0.50;0.50;;;14.50;99.90;;;;;;4982409;28;20235;-84
2023/05/23 12:32:00;;;;;;;0.73;0.70;;;14.40;99.90;;;;;;4989713;28;20270;-86
2023/05/23 12:34:27;;;;;;;3.10;0.90;;;14.30;99.90;;;;;;4988879;28;20227;-86
2023/05/23 12:37:02;;;;;;;1.27;0.40;;;14.20;99.90;;;;;;4972330;28;20228;-87
2023/05/23 12:39:29;;;;;;;0.80;0.50;;;14.10;99.90;;;;;;4988556;28;20215;-85
2023/05/23 12:42:07;;;;;;;2.90;1.53;;;14.00;99.90;;;;;;4972480;28;20232;-90
2023/05/23 12:44:33;;;;;;;0.77;0.77;;;13.80;99.90;;;;;;4990336;28;20716;-87
2023/05/23 12:46:59;;;;;;;5.00;1.63;;;13.70;99.90;;;;;;4989588;28;20188;-87
2023/05/23 12:49:25;;;;;;;4.30;1.27;;;14.20;99.90;;;;;;4990699;28;20188;-87